Buoy 32622

sailwx.info

Track history (hours):
 
Tides and Currents Weather Stations Pressure Air Temp Water Temp Dewpoint Dewpoint Depression Visibility Wind Speed Wind Dir Waves Ship Positions

Aadnyj

Last reported at 2014-Sep-23 09:11 UTC. Time now 2014-Sep-23 10:25 UTC.
Position S 13°23' W 158°40'.

Length 56 m.

Type: Towing. MMSI: 413600286.

Water temperature 28.7 ° C

Date/timePositionNaut miles runAvg speedWind from/ knotsBaromVisibWave heightAir tempDewpointWater temp
2014-Sep-23 09:11S 13°23' W 158°40'0 0.0 28.7
2014-Sep-23 08:29S 13°23' W 158°40'0 0.0 28.7
2014-Sep-23 08:23S 13°23' W 158°40'2 2.2 28.7
2014-Sep-23 07:37S 13°24' W 158°42'1 0.7 28.7
2014-Sep-23 06:47S 13°25' W 158°42'2 1.2 28.7
2014-Sep-23 04:45S 13°22' W 158°43'1 0.9 28.8
2014-Sep-23 03:57S 13°22' W 158°43'0 0.7 28.9
2014-Sep-23 03:52S 13°22' W 158°43'0 1.0 28.9
2014-Sep-23 03:44S 13°22' W 158°43'1 2.0 28.9
2014-Sep-23 03:04S 13°20' W 158°42'1 0.5 28.9
2014-Sep-23 02:05S 13°21' W 158°43'1 1.3 28.9
2014-Sep-23 01:37S 13°20' W 158°43'0 1.6 28.9
2014-Sep-23 01:29S 13°20' W 158°43'1 0.5 28.9
2014-Sep-22 23:56S 13°19' W 158°43'0 0.0 28.9
2014-Sep-22 23:53S 13°19' W 158°43'1 0.3 28.9
2014-Sep-22 20:43S 13°18' W 158°43'1 1.0 28.8
2014-Sep-22 19:58S 13°18' W 158°43'0 0.4 28.7
2014-Sep-22 19:05S 13°18' W 158°43'0 0.2 28.7
2014-Sep-22 17:38S 13°18' W 158°43'2 1.2 28.7
2014-Sep-22 16:01S 13°16' W 158°44'1 1.3 28.7
2014-Sep-22 15:25S 13°16' W 158°45'0 0.2 28.7
2014-Sep-22 15:09S 13°16' W 158°45'1 0.7 28.7
2014-Sep-22 13:29S 13°15' W 158°44'0 0.8 28.7
2014-Sep-22 12:58S 13°14' W 158°44'1 0.4 28.7
2014-Sep-22 11:15S 13°14' W 158°44'1 0.6 28.7
2014-Sep-22 08:51S 13°12' W 158°43'0 0.0 28.7
2014-Sep-22 08:45S 13°12' W 158°43'1 0.7 28.7
2014-Sep-22 08:00S 13°12' W 158°44'0 0.0 28.8
2014-Sep-22 07:54S 13°12' W 158°44'1 1.1 28.8
2014-Sep-22 07:09S 13°12' W 158°43'1 0.7 28.8
2014-Sep-22 05:14S 13°10' W 158°43'1 1.3 28.8
2014-Sep-22 04:15S 13°09' W 158°42'0 1.0 28.8
2014-Sep-22 04:00S 13°09' W 158°42'0 2.9 28.8
2014-Sep-22 03:55S 13°09' W 158°42'0 1.2 28.8
2014-Sep-22 03:37S 13°09' W 158°42'1 0.8 28.9
2014-Sep-22 02:38S 13°09' W 158°42'0 1.1 28.9
2014-Sep-22 02:16S 13°08' W 158°42'1 1.2 28.9
2014-Sep-22 01:46S 13°08' W 158°41'1 8.1 28.9
2014-Sep-22 01:40S 13°07' W 158°41'0 0.0 28.9
2014-Sep-22 00:07S 13°07' W 158°41'0 1.2 28.9
2014-Sep-22 00:04S 13°08' W 158°41'1 0.4 28.9
2014-Sep-21 20:57S 13°07' W 158°40'0 0.0 28.7
2014-Sep-21 20:16S 13°07' W 158°40'1 0.6 28.7
2014-Sep-21 19:25S 13°06' W 158°39'1 0.8 28.7
2014-Sep-21 18:37S 13°06' W 158°39'1 1.7 28.7
2014-Sep-21 18:12S 13°06' W 158°39'1 1.2 28.7
2014-Sep-21 17:26S 13°05' W 158°39'0 0.1 28.6
2014-Sep-21 16:30S 13°06' W 158°39'1 1.4 28.6
2014-Sep-21 15:47S 13°06' W 158°38'1 1.7 28.7
2014-Sep-21 15:23S 13°05' W 158°38'0 1.2 28.7
2014-Sep-21 15:20S 13°05' W 158°38'0 0.9 28.7
2014-Sep-21 15:16S 13°05' W 158°38'1 0.5 28.7
2014-Sep-21 14:04S 13°05' W 158°38'0 0.0 28.6
2014-Sep-21 13:41S 13°05' W 158°38'1 1.0 28.6
2014-Sep-21 13:10S 13°04' W 158°38'0 2.7 28.6
2014-Sep-21 13:07S 13°04' W 158°38'1 0.5 28.6
2014-Sep-21 11:29S 13°04' W 158°37'1 0.4 28.6
2014-Sep-21 09:11S 13°03' W 158°36'112.1 28.6
2014-Sep-21 09:05S 13°02' W 158°35'0 0.0 28.6
2014-Sep-21 08:14S 13°02' W 158°35'0 0.1 28.6
2014-Sep-21 07:29S 13°02' W 158°35'2 2.2 28.6
2014-Sep-21 06:36S 13°01' W 158°34'1 1.4 28.6
2014-Sep-21 05:47S 13°02' W 158°35'1 1.1 28.6
2014-Sep-21 04:45S 13°01' W 158°34'1 0.8 28.7
2014-Sep-21 04:09S 13°01' W 158°33'1 0.8 28.7
2014-Sep-21 03:02S 13°01' W 158°33'1 0.8 28.7
2014-Sep-21 01:57S 12°60' W 158°32'0 6.4 28.8
2014-Sep-21 01:53S 13°00' W 158°32'2 1.1 28.8
2014-Sep-21 00:15S 12°59' W 158°31'4 1.0 28.8
2014-Sep-20 20:38S 12°57' W 158°28'0 0.4 28.5
2014-Sep-20 19:45S 12°57' W 158°27'1 1.4 28.5
2014-Sep-20 18:59S 12°57' W 158°26'1 1.5 28.5
2014-Sep-20 18:03S 12°56' W 158°25'0 0.0 28.5
2014-Sep-20 17:07S 12°56' W 158°25'0 1.2 28.5
2014-Sep-20 17:04S 12°56' W 158°25'1 1.3 28.5
2014-Sep-20 16:11S 12°56' W 158°24'1 6.0 28.5
2014-Sep-20 16:05S 12°56' W 158°23'0 0.0 28.5
2014-Sep-20 15:30S 12°56' W 158°23'0 1.1 28.5
2014-Sep-20 15:23S 12°56' W 158°23'1 1.2 28.5
2014-Sep-20 14:34S 12°55' W 158°22'0 0.6 28.5
2014-Sep-20 13:52S 12°55' W 158°22'1 1.4 28.5
2014-Sep-20 13:16S 12°55' W 158°21'226.7 28.5
2014-Sep-20 13:12S 12°55' W 158°19'0 0.0 28.5
2014-Sep-20 11:40S 12°55' W 158°19'211.2 28.5
2014-Sep-20 11:29S 12°55' W 158°17'1 0.3 28.5
2014-Sep-20 08:40S 12°55' W 158°16'1 1.2 28.6
2014-Sep-20 07:51S 12°55' W 158°15'1 1.5 28.6
2014-Sep-20 06:58S 12°55' W 158°14'0 0.2 28.6
2014-Sep-20 06:15S 12°55' W 158°14'4 2.3 28.6
2014-Sep-20 04:39S 12°55' W 158°10'0 1.0 28.7
2014-Sep-20 04:15S 12°55' W 158°11'1 1.0 28.7
2014-Sep-20 03:26S 12°55' W 158°10'1 2.2 28.7
2014-Sep-20 02:58S 12°55' W 158°09'1 2.2 28.7
2014-Sep-20 02:42S 12°55' W 158°08'0 0.0 28.7
2014-Sep-20 02:39S 12°55' W 158°08'1 1.0 28.7
2014-Sep-20 02:08S 12°55' W 158°08'2 1.3 28.7
2014-Sep-20 00:28S 12°56' W 158°06'3 1.8 28.7
2014-Sep-19 22:41S 12°57' W 158°03'1 0.7 28.7
2014-Sep-19 21:45S 12°57' W 158°03'1 0.8 28.9
2014-Sep-19 20:07S 12°57' W 158°02'0 0.0 28.6
2014-Sep-19 20:01S 12°57' W 158°02'1 0.7 28.6
2014-Sep-19 19:16S 12°57' W 158°02'1 1.4 28.5
2014-Sep-19 18:26S 12°58' W 158°01'0 0.2 28.4
2014-Sep-19 17:38S 12°58' W 158°01'1 4.1 28.4
2014-Sep-19 17:29S 12°58' W 158°00'1 0.7 28.4
2014-Sep-19 15:59S 12°59' W 157°59'0 0.0 28.4
2014-Sep-19 15:56S 12°59' W 157°59'0 1.1 28.4
2014-Sep-19 15:42S 12°59' W 157°59'1 8.0 28.4
2014-Sep-19 15:36S 12°59' W 157°58'0 0.0 28.4
2014-Sep-19 14:59S 12°59' W 157°58'1 0.9 28.4
2014-Sep-19 14:04S 12°59' W 157°57'1 3.8 28.4
2014-Sep-19 13:54S 13°00' W 157°57'0 0.0 28.4
2014-Sep-19 13:30S 13°00' W 157°57'1 9.9 28.4
2014-Sep-19 13:23S 13°01' W 157°56'0 0.0 28.4
2014-Sep-19 11:51S 13°01' W 157°56'213.3 28.4
2014-Sep-19 11:40S 13°02' W 157°54'0 0.0 28.4
2014-Sep-19 09:01S 13°02' W 157°54'0 0.0 28.5
2014-Sep-19 08:56S 13°02' W 157°54'0 0.6 28.5
2014-Sep-19 08:14S 13°02' W 157°54'0 2.3 28.5
2014-Sep-19 08:11S 13°02' W 157°54'1 0.6 28.5
2014-Sep-19 07:15S 13°03' W 157°54'1 0.6 28.5
2014-Sep-19 05:11S 13°04' W 157°53'0 2.7 28.7
2014-Sep-19 05:08S 13°04' W 157°53'0 0.7 28.7
2014-Sep-19 04:28S 13°04' W 157°52'0 0.8 28.7
2014-Sep-19 03:55S 13°04' W 157°52'112.3 28.8
2014-Sep-19 03:51S 13°04' W 157°52'0 0.2 28.8
2014-Sep-19 03:29S 13°04' W 157°52'0 0.5 28.8
2014-Sep-19 02:46S 13°04' W 157°52'2 4.1 28.9
2014-Sep-19 02:15S 13°05' W 157°50'0 0.0 28.9
2014-Sep-19 00:42S 13°05' W 157°50'0 0.0 29.0
2014-Sep-19 00:37S 13°05' W 157°50'0 0.2 29.0
2014-Sep-18 22:55S 13°05' W 157°50'1 0.7 28.8
2014-Sep-18 21:15S 13°06' W 157°50'0 0.5 28.5
2014-Sep-18 20:27S 13°06' W 157°49'0 0.6 28.4
2014-Sep-18 19:41S 13°07' W 157°49'1 3.3 28.4
2014-Sep-18 19:30S 13°07' W 157°49'0 0.0 28.4
2014-Sep-18 18:47S 13°07' W 157°49'1 0.6 28.4
2014-Sep-18 16:30S 13°09' W 157°49'0 2.6 28.4
2014-Sep-18 16:27S 13°09' W 157°50'1 1.1 28.4
2014-Sep-18 15:56S 13°09' W 157°49'0 2.1 28.4
2014-Sep-18 15:47S 13°09' W 157°49'0 0.0 28.4
2014-Sep-18 15:24S 13°09' W 157°49'0 0.2 28.4
2014-Sep-18 14:14S 13°09' W 157°49'1 3.6 28.4
2014-Sep-18 14:04S 13°09' W 157°49'0 0.0 28.4
2014-Sep-18 13:41S 13°09' W 157°49'1 8.1 28.4
2014-Sep-18 13:33S 13°10' W 157°49'0 0.0 28.4
2014-Sep-18 12:00S 13°10' W 157°49'214.5 28.4
2014-Sep-18 11:53S 13°11' W 157°48'0 0.0 28.4
2014-Sep-18 09:15S 13°11' W 157°48'0 0.0 28.4
2014-Sep-18 08:30S 13°11' W 157°48'1 0.8 28.5
2014-Sep-18 07:40S 13°11' W 157°47'1 0.8 28.5
2014-Sep-18 06:46S 13°12' W 157°47'0 0.1
2014-Sep-18 04:39S 13°12' W 157°47'0 0.9 28.5
2014-Sep-18 04:15S 13°12' W 157°47'0 0.6 28.5
2014-Sep-18 04:03S 13°12' W 157°47'0 0.0 28.5
2014-Sep-18 03:06S 13°12' W 157°47'0 3.5 28.5
2014-Sep-18 03:03S 13°12' W 157°46'0 0.6 28.5
2014-Sep-18 02:38S 13°12' W 157°46'111.7 28.5
2014-Sep-18 02:35S 13°12' W 157°46'0 0.0 28.5
2014-Sep-18 02:25S 13°12' W 157°46'1 0.7 28.5
2014-Sep-18 01:19S 13°12' W 157°46'0 0.5 28.7
2014-Sep-18 00:52S 13°12' W 157°45'0 0.0 28.7
2014-Sep-18 00:48S 13°12' W 157°45'1 6.5 28.7
2014-Sep-18 00:40S 13°12' W 157°45'0 0.1 28.7
2014-Sep-17 23:07S 13°12' W 157°44'0 0.2 28.6
2014-Sep-17 20:46S 13°12' W 157°44'1 1.7 28.5
2014-Sep-17 20:01S 13°13' W 157°44'0 0.0 28.4
2014-Sep-17 19:08S 13°13' W 157°44'0 0.0 28.4
2014-Sep-17 18:34S 13°13' W 157°44'0 0.0 28.4
2014-Sep-17 17:01S 13°13' W 157°44'0 0.0 28.4
2014-Sep-17 16:58S 13°13' W 157°44'1 0.7 28.4
2014-Sep-17 15:58S 13°13' W 157°43'0 0.0 28.4
2014-Sep-17 15:47S 13°13' W 157°43'1 5.3 28.4
2014-Sep-17 15:39S 13°14' W 157°44'0 0.0 28.4
2014-Sep-17 15:16S 13°14' W 157°44'1 1.1 28.4
2014-Sep-17 14:28S 13°13' W 157°43'0 1.7 28.4
2014-Sep-17 14:15S 13°13' W 157°43'0 0.0 28.4
2014-Sep-17 14:03S 13°13' W 157°43'0 0.0 28.4
2014-Sep-17 13:52S 13°13' W 157°43'0 0.0 28.4
2014-Sep-17 12:13S 13°13' W 157°43'216.4 28.4
2014-Sep-17 12:04S 13°13' W 157°40'0 0.0 28.4
2014-Sep-17 10:29S 13°13' W 157°40'1 0.4 28.5
2014-Sep-17 08:45S 13°14' W 157°40'0 0.1 28.5
2014-Sep-17 08:00S 13°14' W 157°40'1 1.3 28.5
2014-Sep-17 07:12S 13°14' W 157°39'0 0.3 28.5
2014-Sep-17 06:10S 13°15' W 157°39'1 0.8 28.5
2014-Sep-17 04:29S 13°15' W 157°38'1 0.5 28.6
2014-Sep-17 03:15S 13°15' W 157°38'0 1.7 28.6
2014-Sep-17 03:12S 13°16' W 157°38'0 2.8 28.6
2014-Sep-17 03:04S 13°15' W 157°38'0 0.0 28.6
2014-Sep-17 02:52S 13°15' W 157°38'0 0.2 28.6
2014-Sep-17 01:30S 13°15' W 157°38'1 1.9 28.8
2014-Sep-17 01:00S 13°16' W 157°37'010.0 29.0
2014-Sep-17 00:59S 13°16' W 157°38'1 0.4 29.2
2014-Sep-16 23:16S 13°16' W 157°37'0 0.2 28.6
2014-Sep-16 21:09S 13°17' W 157°37'1 0.8 28.5
2014-Sep-16 20:21S 13°17' W 157°36'0 0.1 28.5
2014-Sep-16 19:30S 13°17' W 157°36'0 0.0 28.6
2014-Sep-16 19:29S 13°17' W 157°36'1 0.8 28.6
2014-Sep-16 18:40S 13°18' W 157°36'0 0.3 28.6
2014-Sep-16 17:29S 13°18' W 157°36'0 0.0 28.5
2014-Sep-16 17:28S 13°18' W 157°36'1 0.5 28.5
2014-Sep-16 15:53S 13°18' W 157°37'0 0.0 28.6
2014-Sep-16 15:50S 13°18' W 157°37'0 0.3 28.6
2014-Sep-16 14:39S 13°18' W 157°37'2 9.3 28.6
2014-Sep-16 14:29S 13°17' W 157°37'0 0.0 28.6
2014-Sep-16 12:53S 13°17' W 157°37'0 0.0 28.6
2014-Sep-16 12:24S 13°17' W 157°37'0 0.0 28.6
2014-Sep-16 12:15S 13°17' W 157°37'0 0.0 28.6
2014-Sep-16 10:42S 13°17' W 157°37'0 0.0 28.6
2014-Sep-16 09:58S 13°17' W 157°37'0 0.5 28.6
2014-Sep-16 09:09S 13°17' W 157°37'0 0.0 28.7
2014-Sep-16 08:24S 13°17' W 157°37'0 0.0 28.7
2014-Sep-16 08:16S 13°17' W 157°37'0 0.6 28.7
2014-Sep-16 07:28S 13°17' W 157°36'0 0.5 28.7
2014-Sep-16 06:40S 13°17' W 157°36'0 0.3 28.7
2014-Sep-16 05:04S 13°17' W 157°36'0 0.1 28.8
2014-Sep-16 03:28S 13°17' W 157°36'0 0.0 28.9
2014-Sep-16 03:24S 13°17' W 157°36'1 4.8 28.9
2014-Sep-16 03:15S 13°16' W 157°37'0 0.0 28.9
2014-Sep-16 01:44S 13°16' W 157°37'1 1.0 29.0
2014-Sep-16 01:13S 13°16' W 157°36'0 1.2 29.0
2014-Sep-16 01:10S 13°16' W 157°36'1 0.4 29.0
2014-Sep-15 23:30S 13°15' W 157°36'1 0.5 28.8
2014-Sep-15 20:40S 13°15' W 157°35'0 0.6 28.5
2014-Sep-15 19:49S 13°14' W 157°35'1 1.2 28.5
2014-Sep-15 19:02S 13°14' W 157°34'1 0.7 28.5
2014-Sep-15 18:08S 13°15' W 157°33'0 0.0 28.5
2014-Sep-15 18:02S 13°15' W 157°33'0 0.2 28.5
2014-Sep-15 16:29S 13°14' W 157°33'0 0.7 28.5
2014-Sep-15 16:24S 13°14' W 157°33'0 0.4 28.5
2014-Sep-15 16:16S 13°14' W 157°33'0 0.2 28.5
2014-Sep-15 14:57S 13°14' W 157°33'110.2 28.5
2014-Sep-15 14:50S 13°14' W 157°32'0 0.0 28.5
2014-Sep-15 14:40S 13°14' W 157°32'1 2.5 28.5
2014-Sep-15 14:11S 13°14' W 157°33'1 1.1 28.5
2014-Sep-15 13:07S 13°14' W 157°32'0 0.0 28.5
2014-Sep-15 12:30S 13°14' W 157°32'1 0.5 28.5
2014-Sep-15 10:54S 13°14' W 157°32'2 0.9 28.6
2014-Sep-15 08:41S 13°13' W 157°30'1 1.0 28.6
2014-Sep-15 07:54S 13°13' W 157°29'1 0.7 28.6
2014-Sep-15 07:01S 13°13' W 157°29'1 0.3 28.6
2014-Sep-15 03:57S 13°13' W 157°28'0 0.0 28.7
2014-Sep-15 03:54S 13°13' W 157°28'0 1.3 28.7
2014-Sep-15 03:38S 13°13' W 157°28'0 0.0 28.7
2014-Sep-15 03:35S 13°13' W 157°28'1 0.6 28.7
2014-Sep-15 02:10S 13°13' W 157°27'0 2.3 28.7
2014-Sep-15 01:58S 13°13' W 157°27'0 0.0 28.7
2014-Sep-15 01:55S 13°13' W 157°27'1 1.2 28.7
2014-Sep-15 01:24S 13°13' W 157°27'0 0.0 28.8
2014-Sep-15 01:20S 13°13' W 157°27'1 0.4 28.8
2014-Sep-14 23:43S 13°13' W 157°28'1 0.4 28.8
2014-Sep-14 21:00S 13°13' W 157°26'1 8.0 28.6
2014-Sep-14 20:54S 13°13' W 157°26'0 0.0 28.6
2014-Sep-14 20:10S 13°13' W 157°26'0 0.1 28.5
2014-Sep-14 19:24S 13°13' W 157°26'0 0.4 28.4
2014-Sep-14 18:30S 13°13' W 157°25'1 0.5 28.4
2014-Sep-14 16:55S 13°13' W 157°25'0 0.0 28.4
2014-Sep-14 16:52S 13°13' W 157°25'0 0.3 28.4
2014-Sep-14 15:22S 13°13' W 157°24'0 0.7 28.4
2014-Sep-14 15:11S 13°14' W 157°24'0 1.3 28.5
2014-Sep-14 15:00S 13°14' W 157°24'1 6.4 28.5
2014-Sep-14 14:51S 13°14' W 157°23'0 0.0 28.5
2014-Sep-14 13:15S 13°14' W 157°23'0 0.4 28.5
2014-Sep-14 12:46S 13°14' W 157°23'0 0.2 28.5
2014-Sep-14 11:00S 13°14' W 157°24'0 0.3 28.8
2014-Sep-14 09:47S 13°14' W 157°23'1 1.1 29.0
2014-Sep-14 08:58S 13°15' W 157°22'0 0.0 29.2
2014-Sep-14 08:14S 13°15' W 157°22'0 0.0 29.3
2014-Sep-14 07:25S 13°15' W 157°22'0 3.8 29.4
2014-Sep-14 07:22S 13°14' W 157°22'1 0.6 29.4
2014-Sep-14 06:29S 13°15' W 157°22'0 0.1 29.7
2014-Sep-14 04:28S 13°15' W 157°22'0 0.0 30.2
2014-Sep-14 04:16S 13°15' W 157°22'1 7.0 30.3
2014-Sep-14 04:09S 13°15' W 157°22'0 0.0 30.3
2014-Sep-14 03:46S 13°15' W 157°22'1 1.1 30.4
2014-Sep-14 02:46S 13°16' W 157°22'0 0.2 30.8
2014-Sep-14 02:30S 13°16' W 157°22'0 0.8 30.9
2014-Sep-14 02:07S 13°16' W 157°22'0 0.7 30.9
2014-Sep-14 01:30S 13°16' W 157°21'0 0.0 31.0
2014-Sep-13 23:55S 13°16' W 157°22'0 4.3 29.9
2014-Sep-13 23:52S 13°16' W 157°22'1 0.4 29.9
2014-Sep-13 21:23S 13°15' W 157°22'0 0.5 29.2
2014-Sep-13 20:29S 13°15' W 157°22'0 0.3 28.9
2014-Sep-13 19:44S 13°15' W 157°22'1 3.7 28.7
2014-Sep-13 19:33S 13°15' W 157°21'0 0.0 28.7
2014-Sep-13 18:45S 13°15' W 157°21'0 0.3 28.6
2014-Sep-13 17:26S 13°15' W 157°21'0 0.0 28.5
2014-Sep-13 17:22S 13°15' W 157°21'1 0.3 28.5
2014-Sep-13 15:47S 13°15' W 157°21'0 3.8 28.6
2014-Sep-13 15:44S 13°15' W 157°21'0 0.5 28.6
2014-Sep-13 15:11S 13°15' W 157°21'1 5.9 28.6
2014-Sep-13 15:02S 13°16' W 157°20'0 0.0 28.6
2014-Sep-13 14:00S 13°16' W 157°20'0 0.0
2014-Sep-13 13:28S 13°16' W 157°20'0 0.3 28.7
2014-Sep-13 12:57S 13°16' W 157°20'0 0.2 28.7
2014-Sep-13 11:16S 13°16' W 157°20'   28.7
Track history (hours):
 
Tides and Currents Weather Stations Pressure Air Temp Water Temp Dewpoint Dewpoint Depression Visibility Wind Speed Wind Dir Waves Ship Positions

Aadnyj

Last reported at 2014-Sep-23 09:11 UTC. Time now 2014-Sep-23 10:25 UTC.
Position S 13°23' W 158°40'.

Length 56 m.

Type: Towing. MMSI: 413600286.

Water temperature 28.7 ° C

Date/timePositionNaut miles runAvg speedWind from/ knotsBaromVisibWave heightAir tempDewpointWater temp
2014-Sep-23 09:11S 13°23' W 158°40'0 0.0 28.7
2014-Sep-23 08:29S 13°23' W 158°40'0 0.0 28.7
2014-Sep-23 08:23S 13°23' W 158°40'2 2.2 28.7
2014-Sep-23 07:37S 13°24' W 158°42'1 0.7 28.7
2014-Sep-23 06:47S 13°25' W 158°42'2 1.2 28.7
2014-Sep-23 04:45S 13°22' W 158°43'1 0.9 28.8
2014-Sep-23 03:57S 13°22' W 158°43'0 0.7 28.9
2014-Sep-23 03:52S 13°22' W 158°43'0 1.0 28.9
2014-Sep-23 03:44S 13°22' W 158°43'1 2.0 28.9
2014-Sep-23 03:04S 13°20' W 158°42'1 0.5 28.9
2014-Sep-23 02:05S 13°21' W 158°43'1 1.3 28.9
2014-Sep-23 01:37S 13°20' W 158°43'0 1.6 28.9
2014-Sep-23 01:29S 13°20' W 158°43'1 0.5 28.9
2014-Sep-22 23:56S 13°19' W 158°43'0 0.0 28.9
2014-Sep-22 23:53S 13°19' W 158°43'1 0.3 28.9
2014-Sep-22 20:43S 13°18' W 158°43'1 1.0 28.8
2014-Sep-22 19:58S 13°18' W 158°43'0 0.4 28.7
2014-Sep-22 19:05S 13°18' W 158°43'0 0.2 28.7
2014-Sep-22 17:38S 13°18' W 158°43'2 1.2 28.7
2014-Sep-22 16:01S 13°16' W 158°44'1 1.3 28.7
2014-Sep-22 15:25S 13°16' W 158°45'0 0.2 28.7
2014-Sep-22 15:09S 13°16' W 158°45'1 0.7 28.7
2014-Sep-22 13:29S 13°15' W 158°44'0 0.8 28.7
2014-Sep-22 12:58S 13°14' W 158°44'1 0.4 28.7
2014-Sep-22 11:15S 13°14' W 158°44'1 0.6 28.7
2014-Sep-22 08:51S 13°12' W 158°43'0 0.0 28.7
2014-Sep-22 08:45S 13°12' W 158°43'1 0.7 28.7
2014-Sep-22 08:00S 13°12' W 158°44'0 0.0 28.8
2014-Sep-22 07:54S 13°12' W 158°44'1 1.1 28.8
2014-Sep-22 07:09S 13°12' W 158°43'1 0.7 28.8
2014-Sep-22 05:14S 13°10' W 158°43'1 1.3 28.8
2014-Sep-22 04:15S 13°09' W 158°42'0 1.0 28.8
2014-Sep-22 04:00S 13°09' W 158°42'0 2.9 28.8
2014-Sep-22 03:55S 13°09' W 158°42'0 1.2 28.8
2014-Sep-22 03:37S 13°09' W 158°42'1 0.8 28.9
2014-Sep-22 02:38S 13°09' W 158°42'0 1.1 28.9
2014-Sep-22 02:16S 13°08' W 158°42'1 1.2 28.9
2014-Sep-22 01:46S 13°08' W 158°41'1 8.1 28.9
2014-Sep-22 01:40S 13°07' W 158°41'0 0.0 28.9
2014-Sep-22 00:07S 13°07' W 158°41'0 1.2 28.9
2014-Sep-22 00:04S 13°08' W 158°41'1 0.4 28.9
2014-Sep-21 20:57S 13°07' W 158°40'0 0.0 28.7
2014-Sep-21 20:16S 13°07' W 158°40'1 0.6 28.7
2014-Sep-21 19:25S 13°06' W 158°39'1 0.8 28.7
2014-Sep-21 18:37S 13°06' W 158°39'1 1.7 28.7
2014-Sep-21 18:12S 13°06' W 158°39'1 1.2 28.7
2014-Sep-21 17:26S 13°05' W 158°39'0 0.1 28.6
2014-Sep-21 16:30S 13°06' W 158°39'1 1.4 28.6
2014-Sep-21 15:47S 13°06' W 158°38'1 1.7 28.7
2014-Sep-21 15:23S 13°05' W 158°38'0 1.2 28.7
2014-Sep-21 15:20S 13°05' W 158°38'0 0.9 28.7
2014-Sep-21 15:16S 13°05' W 158°38'1 0.5 28.7
2014-Sep-21 14:04S 13°05' W 158°38'0 0.0 28.6
2014-Sep-21 13:41S 13°05' W 158°38'1 1.0 28.6
2014-Sep-21 13:10S 13°04' W 158°38'0 2.7 28.6
2014-Sep-21 13:07S 13°04' W 158°38'1 0.5 28.6
2014-Sep-21 11:29S 13°04' W 158°37'1 0.4 28.6
2014-Sep-21 09:11S 13°03' W 158°36'112.1 28.6
2014-Sep-21 09:05S 13°02' W 158°35'0 0.0 28.6
2014-Sep-21 08:14S 13°02' W 158°35'0 0.1 28.6
2014-Sep-21 07:29S 13°02' W 158°35'2 2.2 28.6
2014-Sep-21 06:36S 13°01' W 158°34'1 1.4 28.6
2014-Sep-21 05:47S 13°02' W 158°35'1 1.1 28.6
2014-Sep-21 04:45S 13°01' W 158°34'1 0.8 28.7
2014-Sep-21 04:09S 13°01' W 158°33'1 0.8 28.7
2014-Sep-21 03:02S 13°01' W 158°33'1 0.8 28.7
2014-Sep-21 01:57S 12°60' W 158°32'0 6.4 28.8
2014-Sep-21 01:53S 13°00' W 158°32'2 1.1 28.8
2014-Sep-21 00:15S 12°59' W 158°31'4 1.0 28.8
2014-Sep-20 20:38S 12°57' W 158°28'0 0.4 28.5
2014-Sep-20 19:45S 12°57' W 158°27'1 1.4 28.5
2014-Sep-20 18:59S 12°57' W 158°26'1 1.5 28.5
2014-Sep-20 18:03S 12°56' W 158°25'0 0.0 28.5
2014-Sep-20 17:07S 12°56' W 158°25'0 1.2 28.5
2014-Sep-20 17:04S 12°56' W 158°25'1 1.3 28.5
2014-Sep-20 16:11S 12°56' W 158°24'1 6.0 28.5
2014-Sep-20 16:05S 12°56' W 158°23'0 0.0 28.5
2014-Sep-20 15:30S 12°56' W 158°23'0 1.1 28.5
2014-Sep-20 15:23S 12°56' W 158°23'1 1.2 28.5
2014-Sep-20 14:34S 12°55' W 158°22'0 0.6 28.5
2014-Sep-20 13:52S 12°55' W 158°22'1 1.4 28.5
2014-Sep-20 13:16S 12°55' W 158°21'226.7 28.5
2014-Sep-20 13:12S 12°55' W 158°19'0 0.0 28.5
2014-Sep-20 11:40S 12°55' W 158°19'211.2 28.5
2014-Sep-20 11:29S 12°55' W 158°17'1 0.3 28.5
2014-Sep-20 08:40S 12°55' W 158°16'1 1.2 28.6
2014-Sep-20 07:51S 12°55' W 158°15'1 1.5 28.6
2014-Sep-20 06:58S 12°55' W 158°14'0 0.2 28.6
2014-Sep-20 06:15S 12°55' W 158°14'4 2.3 28.6
2014-Sep-20 04:39S 12°55' W 158°10'0 1.0 28.7
2014-Sep-20 04:15S 12°55' W 158°11'1 1.0 28.7
2014-Sep-20 03:26S 12°55' W 158°10'1 2.2 28.7
2014-Sep-20 02:58S 12°55' W 158°09'1 2.2 28.7
2014-Sep-20 02:42S 12°55' W 158°08'0 0.0 28.7
2014-Sep-20 02:39S 12°55' W 158°08'1 1.0 28.7
2014-Sep-20 02:08S 12°55' W 158°08'2 1.3 28.7
2014-Sep-20 00:28S 12°56' W 158°06'3 1.8 28.7
2014-Sep-19 22:41S 12°57' W 158°03'1 0.7 28.7
2014-Sep-19 21:45S 12°57' W 158°03'1 0.8 28.9
2014-Sep-19 20:07S 12°57' W 158°02'0 0.0 28.6
2014-Sep-19 20:01S 12°57' W 158°02'1 0.7 28.6
2014-Sep-19 19:16S 12°57' W 158°02'1 1.4 28.5
2014-Sep-19 18:26S 12°58' W 158°01'0 0.2 28.4
2014-Sep-19 17:38S 12°58' W 158°01'1 4.1 28.4
2014-Sep-19 17:29S 12°58' W 158°00'1 0.7 28.4
2014-Sep-19 15:59S 12°59' W 157°59'0 0.0 28.4
2014-Sep-19 15:56S 12°59' W 157°59'0 1.1 28.4
2014-Sep-19 15:42S 12°59' W 157°59'1 8.0 28.4
2014-Sep-19 15:36S 12°59' W 157°58'0 0.0 28.4
2014-Sep-19 14:59S 12°59' W 157°58'1 0.9 28.4
2014-Sep-19 14:04S 12°59' W 157°57'1 3.8 28.4
2014-Sep-19 13:54S 13°00' W 157°57'0 0.0 28.4
2014-Sep-19 13:30S 13°00' W 157°57'1 9.9 28.4
2014-Sep-19 13:23S 13°01' W 157°56'0 0.0 28.4
2014-Sep-19 11:51S 13°01' W 157°56'213.3 28.4
2014-Sep-19 11:40S 13°02' W 157°54'0 0.0 28.4
2014-Sep-19 09:01S 13°02' W 157°54'0 0.0 28.5
2014-Sep-19 08:56S 13°02' W 157°54'0 0.6 28.5
2014-Sep-19 08:14S 13°02' W 157°54'0 2.3 28.5
2014-Sep-19 08:11S 13°02' W 157°54'1 0.6 28.5
2014-Sep-19 07:15S 13°03' W 157°54'1 0.6 28.5
2014-Sep-19 05:11S 13°04' W 157°53'0 2.7 28.7
2014-Sep-19 05:08S 13°04' W 157°53'0 0.7 28.7
2014-Sep-19 04:28S 13°04' W 157°52'0 0.8 28.7
2014-Sep-19 03:55S 13°04' W 157°52'112.3 28.8
2014-Sep-19 03:51S 13°04' W 157°52'0 0.2 28.8
2014-Sep-19 03:29S 13°04' W 157°52'0 0.5 28.8
2014-Sep-19 02:46S 13°04' W 157°52'2 4.1 28.9
2014-Sep-19 02:15S 13°05' W 157°50'0 0.0 28.9
2014-Sep-19 00:42S 13°05' W 157°50'0 0.0 29.0
2014-Sep-19 00:37S 13°05' W 157°50'0 0.2 29.0
2014-Sep-18 22:55S 13°05' W 157°50'1 0.7 28.8
2014-Sep-18 21:15S 13°06' W 157°50'0 0.5 28.5
2014-Sep-18 20:27S 13°06' W 157°49'0 0.6 28.4
2014-Sep-18 19:41S 13°07' W 157°49'1 3.3 28.4
2014-Sep-18 19:30S 13°07' W 157°49'0 0.0 28.4
2014-Sep-18 18:47S 13°07' W 157°49'1 0.6 28.4
2014-Sep-18 16:30S 13°09' W 157°49'0 2.6 28.4
2014-Sep-18 16:27S 13°09' W 157°50'1 1.1 28.4
2014-Sep-18 15:56S 13°09' W 157°49'0 2.1 28.4
2014-Sep-18 15:47S 13°09' W 157°49'0 0.0 28.4
2014-Sep-18 15:24S 13°09' W 157°49'0 0.2 28.4
2014-Sep-18 14:14S 13°09' W 157°49'1 3.6 28.4
2014-Sep-18 14:04S 13°09' W 157°49'0 0.0 28.4
2014-Sep-18 13:41S 13°09' W 157°49'1 8.1 28.4
2014-Sep-18 13:33S 13°10' W 157°49'0 0.0 28.4
2014-Sep-18 12:00S 13°10' W 157°49'214.5 28.4
2014-Sep-18 11:53S 13°11' W 157°48'0 0.0 28.4
2014-Sep-18 09:15S 13°11' W 157°48'0 0.0 28.4
2014-Sep-18 08:30S 13°11' W 157°48'1 0.8 28.5
2014-Sep-18 07:40S 13°11' W 157°47'1 0.8 28.5
2014-Sep-18 06:46S 13°12' W 157°47'0 0.1
2014-Sep-18 04:39S 13°12' W 157°47'0 0.9 28.5
2014-Sep-18 04:15S 13°12' W 157°47'0 0.6 28.5
2014-Sep-18 04:03S 13°12' W 157°47'0 0.0 28.5
2014-Sep-18 03:06S 13°12' W 157°47'0 3.5 28.5
2014-Sep-18 03:03S 13°12' W 157°46'0 0.6 28.5
2014-Sep-18 02:38S 13°12' W 157°46'111.7 28.5
2014-Sep-18 02:35S 13°12' W 157°46'0 0.0 28.5
2014-Sep-18 02:25S 13°12' W 157°46'1 0.7 28.5
2014-Sep-18 01:19S 13°12' W 157°46'0 0.5 28.7
2014-Sep-18 00:52S 13°12' W 157°45'0 0.0 28.7
2014-Sep-18 00:48S 13°12' W 157°45'1 6.5 28.7
2014-Sep-18 00:40S 13°12' W 157°45'0 0.1 28.7
2014-Sep-17 23:07S 13°12' W 157°44'0 0.2 28.6
2014-Sep-17 20:46S 13°12' W 157°44'1 1.7 28.5
2014-Sep-17 20:01S 13°13' W 157°44'0 0.0 28.4
2014-Sep-17 19:08S 13°13' W 157°44'0 0.0 28.4
2014-Sep-17 18:34S 13°13' W 157°44'0 0.0 28.4
2014-Sep-17 17:01S 13°13' W 157°44'0 0.0 28.4
2014-Sep-17 16:58S 13°13' W 157°44'1 0.7 28.4
2014-Sep-17 15:58S 13°13' W 157°43'0 0.0 28.4
2014-Sep-17 15:47S 13°13' W 157°43'1 5.3 28.4
2014-Sep-17 15:39S 13°14' W 157°44'0 0.0 28.4
2014-Sep-17 15:16S 13°14' W 157°44'1 1.1 28.4
2014-Sep-17 14:28S 13°13' W 157°43'0 1.7 28.4
2014-Sep-17 14:15S 13°13' W 157°43'0 0.0 28.4
2014-Sep-17 14:03S 13°13' W 157°43'0 0.0 28.4
2014-Sep-17 13:52S 13°13' W 157°43'0 0.0 28.4
2014-Sep-17 12:13S 13°13' W 157°43'216.4 28.4
2014-Sep-17 12:04S 13°13' W 157°40'0 0.0 28.4
2014-Sep-17 10:29S 13°13' W 157°40'1 0.4 28.5
2014-Sep-17 08:45S 13°14' W 157°40'0 0.1 28.5
2014-Sep-17 08:00S 13°14' W 157°40'1 1.3 28.5
2014-Sep-17 07:12S 13°14' W 157°39'0 0.3 28.5
2014-Sep-17 06:10S 13°15' W 157°39'1 0.8 28.5
2014-Sep-17 04:29S 13°15' W 157°38'1 0.5 28.6
2014-Sep-17 03:15S 13°15' W 157°38'0 1.7 28.6
2014-Sep-17 03:12S 13°16' W 157°38'0 2.8 28.6
2014-Sep-17 03:04S 13°15' W 157°38'0 0.0 28.6
2014-Sep-17 02:52S 13°15' W 157°38'0 0.2 28.6
2014-Sep-17 01:30S 13°15' W 157°38'1 1.9 28.8
2014-Sep-17 01:00S 13°16' W 157°37'010.0 29.0
2014-Sep-17 00:59S 13°16' W 157°38'1 0.4 29.2
2014-Sep-16 23:16S 13°16' W 157°37'0 0.2 28.6
2014-Sep-16 21:09S 13°17' W 157°37'1 0.8 28.5
2014-Sep-16 20:21S 13°17' W 157°36'0 0.1 28.5
2014-Sep-16 19:30S 13°17' W 157°36'0 0.0 28.6
2014-Sep-16 19:29S 13°17' W 157°36'1 0.8 28.6
2014-Sep-16 18:40S 13°18' W 157°36'0 0.3 28.6
2014-Sep-16 17:29S 13°18' W 157°36'0 0.0 28.5
2014-Sep-16 17:28S 13°18' W 157°36'1 0.5 28.5
2014-Sep-16 15:53S 13°18' W 157°37'0 0.0 28.6
2014-Sep-16 15:50S 13°18' W 157°37'0 0.3 28.6
2014-Sep-16 14:39S 13°18' W 157°37'2 9.3 28.6
2014-Sep-16 14:29S 13°17' W 157°37'0 0.0 28.6
2014-Sep-16 12:53S 13°17' W 157°37'0 0.0 28.6
2014-Sep-16 12:24S 13°17' W 157°37'0 0.0 28.6
2014-Sep-16 12:15S 13°17' W 157°37'0 0.0 28.6
2014-Sep-16 10:42S 13°17' W 157°37'0 0.0 28.6
2014-Sep-16 09:58S 13°17' W 157°37'0 0.5 28.6
2014-Sep-16 09:09S 13°17' W 157°37'0 0.0 28.7
2014-Sep-16 08:24S 13°17' W 157°37'0 0.0 28.7
2014-Sep-16 08:16S 13°17' W 157°37'0 0.6 28.7
2014-Sep-16 07:28S 13°17' W 157°36'0 0.5 28.7
2014-Sep-16 06:40S 13°17' W 157°36'0 0.3 28.7
2014-Sep-16 05:04S 13°17' W 157°36'0 0.1 28.8
2014-Sep-16 03:28S 13°17' W 157°36'0 0.0 28.9
2014-Sep-16 03:24S 13°17' W 157°36'1 4.8 28.9
2014-Sep-16 03:15S 13°16' W 157°37'0 0.0 28.9
2014-Sep-16 01:44S 13°16' W 157°37'1 1.0 29.0
2014-Sep-16 01:13S 13°16' W 157°36'0 1.2 29.0
2014-Sep-16 01:10S 13°16' W 157°36'1 0.4 29.0
2014-Sep-15 23:30S 13°15' W 157°36'1 0.5 28.8
2014-Sep-15 20:40S 13°15' W 157°35'0 0.6 28.5
2014-Sep-15 19:49S 13°14' W 157°35'1 1.2 28.5
2014-Sep-15 19:02S 13°14' W 157°34'1 0.7 28.5
2014-Sep-15 18:08S 13°15' W 157°33'0 0.0 28.5
2014-Sep-15 18:02S 13°15' W 157°33'0 0.2 28.5
2014-Sep-15 16:29S 13°14' W 157°33'0 0.7 28.5
2014-Sep-15 16:24S 13°14' W 157°33'0 0.4 28.5
2014-Sep-15 16:16S 13°14' W 157°33'0 0.2 28.5
2014-Sep-15 14:57S 13°14' W 157°33'110.2 28.5
2014-Sep-15 14:50S 13°14' W 157°32'0 0.0 28.5
2014-Sep-15 14:40S 13°14' W 157°32'1 2.5 28.5
2014-Sep-15 14:11S 13°14' W 157°33'1 1.1 28.5
2014-Sep-15 13:07S 13°14' W 157°32'0 0.0 28.5
2014-Sep-15 12:30S 13°14' W 157°32'1 0.5 28.5
2014-Sep-15 10:54S 13°14' W 157°32'2 0.9 28.6
2014-Sep-15 08:41S 13°13' W 157°30'1 1.0 28.6
2014-Sep-15 07:54S 13°13' W 157°29'1 0.7 28.6
2014-Sep-15 07:01S 13°13' W 157°29'1 0.3 28.6
2014-Sep-15 03:57S 13°13' W 157°28'0 0.0 28.7
2014-Sep-15 03:54S 13°13' W 157°28'0 1.3 28.7
2014-Sep-15 03:38S 13°13' W 157°28'0 0.0 28.7
2014-Sep-15 03:35S 13°13' W 157°28'1 0.6 28.7
2014-Sep-15 02:10S 13°13' W 157°27'0 2.3 28.7
2014-Sep-15 01:58S 13°13' W 157°27'0 0.0 28.7
2014-Sep-15 01:55S 13°13' W 157°27'1 1.2 28.7
2014-Sep-15 01:24S 13°13' W 157°27'0 0.0 28.8
2014-Sep-15 01:20S 13°13' W 157°27'1 0.4 28.8
2014-Sep-14 23:43S 13°13' W 157°28'1 0.4 28.8
2014-Sep-14 21:00S 13°13' W 157°26'1 8.0 28.6
2014-Sep-14 20:54S 13°13' W 157°26'0 0.0 28.6
2014-Sep-14 20:10S 13°13' W 157°26'0 0.1 28.5
2014-Sep-14 19:24S 13°13' W 157°26'0 0.4 28.4
2014-Sep-14 18:30S 13°13' W 157°25'1 0.5 28.4
2014-Sep-14 16:55S 13°13' W 157°25'0 0.0 28.4
2014-Sep-14 16:52S 13°13' W 157°25'0 0.3 28.4
2014-Sep-14 15:22S 13°13' W 157°24'0 0.7 28.4
2014-Sep-14 15:11S 13°14' W 157°24'0 1.3 28.5
2014-Sep-14 15:00S 13°14' W 157°24'1 6.4 28.5
2014-Sep-14 14:51S 13°14' W 157°23'0 0.0 28.5
2014-Sep-14 13:15S 13°14' W 157°23'0 0.4 28.5
2014-Sep-14 12:46S 13°14' W 157°23'0 0.2 28.5
2014-Sep-14 11:00S 13°14' W 157°24'0 0.3 28.8
2014-Sep-14 09:47S 13°14' W 157°23'1 1.1 29.0
2014-Sep-14 08:58S 13°15' W 157°22'0 0.0 29.2
2014-Sep-14 08:14S 13°15' W 157°22'0 0.0 29.3
2014-Sep-14 07:25S 13°15' W 157°22'0 3.8 29.4
2014-Sep-14 07:22S 13°14' W 157°22'1 0.6 29.4
2014-Sep-14 06:29S 13°15' W 157°22'0 0.1 29.7
2014-Sep-14 04:28S 13°15' W 157°22'0 0.0 30.2
2014-Sep-14 04:16S 13°15' W 157°22'1 7.0 30.3
2014-Sep-14 04:09S 13°15' W 157°22'0 0.0 30.3
2014-Sep-14 03:46S 13°15' W 157°22'1 1.1 30.4
2014-Sep-14 02:46S 13°16' W 157°22'0 0.2 30.8
2014-Sep-14 02:30S 13°16' W 157°22'0 0.8 30.9
2014-Sep-14 02:07S 13°16' W 157°22'0 0.7 30.9
2014-Sep-14 01:30S 13°16' W 157°21'0 0.0 31.0
2014-Sep-13 23:55S 13°16' W 157°22'0 4.3 29.9
2014-Sep-13 23:52S 13°16' W 157°22'1 0.4 29.9
2014-Sep-13 21:23S 13°15' W 157°22'0 0.5 29.2
2014-Sep-13 20:29S 13°15' W 157°22'0 0.3 28.9
2014-Sep-13 19:44S 13°15' W 157°22'1 3.7 28.7
2014-Sep-13 19:33S 13°15' W 157°21'0 0.0 28.7
2014-Sep-13 18:45S 13°15' W 157°21'0 0.3 28.6
2014-Sep-13 17:26S 13°15' W 157°21'0 0.0 28.5
2014-Sep-13 17:22S 13°15' W 157°21'1 0.3 28.5
2014-Sep-13 15:47S 13°15' W 157°21'0 3.8 28.6
2014-Sep-13 15:44S 13°15' W 157°21'0 0.5 28.6
2014-Sep-13 15:11S 13°15' W 157°21'1 5.9 28.6
2014-Sep-13 15:02S 13°16' W 157°20'0 0.0 28.6
2014-Sep-13 14:00S 13°16' W 157°20'0 0.0
2014-Sep-13 13:28S 13°16' W 157°20'0 0.3 28.7
2014-Sep-13 12:57S 13°16' W 157°20'0 0.2 28.7
2014-Sep-13 11:16S 13°16' W 157°20'   28.7

Dump ship's entire track history